createdAt,value
2018-08-04T00:02:59.857Z,28.74
2018-08-04T00:08:03.496Z,28.74
2018-08-04T00:13:07.129Z,28.75
2018-08-04T00:18:10.577Z,28.72
2018-08-04T00:23:14.015Z,28.73
2018-08-04T00:28:17.529Z,28.72
2018-08-04T00:33:21.003Z,28.68
2018-08-04T00:38:24.513Z,28.68
2018-08-04T00:43:28.009Z,28.66
2018-08-04T00:48:31.861Z,28.60
2018-08-04T00:53:35.785Z,28.64
2018-08-04T00:58:39.799Z,28.58
2018-08-04T01:03:43.556Z,28.59
2018-08-04T01:08:47.217Z,28.60
2018-08-04T01:13:50.913Z,28.60
2018-08-04T01:18:54.924Z,28.58
2018-08-04T01:23:58.538Z,28.56
2018-08-04T01:29:01.957Z,28.58
2018-08-04T01:34:05.418Z,28.57
2018-08-04T01:39:10.446Z,28.60
2018-08-04T01:44:13.909Z,28.56
2018-08-04T01:49:17.634Z,28.59
2018-08-04T01:54:21.169Z,28.59
2018-08-04T01:59:24.661Z,28.60
2018-08-04T02:04:28.396Z,28.63
2018-08-04T02:09:31.968Z,28.62
2018-08-04T02:14:35.481Z,28.60
2018-08-04T02:19:39.063Z,28.58
2018-08-04T02:24:42.607Z,28.55
2018-08-04T02:29:46.365Z,28.57
2018-08-04T02:34:49.794Z,28.57
2018-08-04T02:39:53.814Z,28.56
2018-08-04T02:44:57.343Z,28.56
2018-08-04T02:50:00.902Z,28.51
2018-08-04T02:55:04.775Z,28.54
2018-08-04T03:00:09.497Z,28.48
2018-08-04T03:05:13.047Z,28.48
2018-08-04T03:10:16.585Z,28.49
2018-08-04T03:15:20.433Z,28.43
2018-08-04T03:20:23.910Z,28.42
2018-08-04T03:25:27.786Z,28.42
2018-08-04T03:30:32.113Z,28.40
2018-08-04T03:35:35.605Z,28.41
2018-08-04T03:40:39.394Z,28.37
2018-08-04T03:45:44.161Z,28.35
2018-08-04T03:50:48.581Z,28.34
2018-08-04T03:55:53.252Z,28.38
2018-08-04T04:00:57.873Z,28.30
2018-08-04T04:06:01.833Z,28.31
2018-08-04T04:11:05.532Z,28.28
2018-08-04T04:16:09.109Z,28.24
2018-08-04T04:21:13.048Z,28.28
2018-08-04T04:26:16.674Z,28.30
2018-08-04T04:31:20.762Z,28.33
2018-08-04T04:36:24.726Z,28.36
2018-08-04T04:41:28.309Z,28.37
2018-08-04T04:46:36.243Z,28.43
2018-08-04T04:51:40.572Z,28.43
2018-08-04T04:56:45.269Z,28.40
2018-08-04T05:01:49.236Z,28.43
2018-08-04T05:06:52.833Z,28.53
2018-08-04T05:11:56.358Z,28.54
2018-08-04T05:17:00.209Z,28.57
2018-08-04T05:22:04.014Z,28.61
2018-08-04T05:27:08.042Z,28.66
2018-08-04T05:32:11.897Z,28.69
2018-08-04T05:37:15.497Z,28.73
2018-08-04T05:42:19.135Z,28.66
2018-08-04T05:47:22.824Z,28.66
2018-08-04T05:52:26.468Z,28.67
2018-08-04T05:57:30.487Z,28.69
2018-08-04T06:02:34.239Z,28.58
2018-08-04T06:07:37.797Z,28.59
2018-08-04T06:12:41.829Z,28.68
2018-08-04T06:17:45.976Z,28.59
2018-08-04T06:22:49.815Z,28.60
2018-08-04T06:27:53.833Z,28.61
2018-08-04T06:32:57.825Z,28.63
2018-08-04T06:38:01.893Z,28.67
2018-08-04T06:43:05.610Z,28.45
2018-08-04T06:48:09.356Z,28.47
2018-08-04T06:53:13.071Z,28.40
2018-08-04T06:58:17.137Z,28.46
2018-08-04T07:03:20.653Z,28.48
2018-08-04T07:08:24.090Z,28.50
2018-08-04T07:13:27.513Z,28.53
2018-08-04T07:18:31.016Z,28.51
2018-08-04T07:23:34.636Z,28.51
2018-08-04T07:28:38.164Z,28.51
2018-08-04T07:33:41.625Z,28.52
2018-08-04T07:38:45.211Z,28.55
2018-08-04T07:43:49.057Z,28.63
2018-08-04T07:48:52.672Z,28.67
2018-08-04T07:53:56.417Z,28.77
2018-08-04T07:59:00.435Z,28.89
2018-08-04T08:04:03.953Z,28.90
2018-08-04T08:09:08.477Z,28.96
2018-08-04T08:14:11.994Z,28.92
2018-08-04T08:19:15.784Z,28.94
2018-08-04T08:24:19.258Z,29.06
2018-08-04T08:29:22.745Z,29.07
2018-08-04T08:34:26.469Z,29.07
2018-08-04T08:39:30.263Z,29.02
2018-08-04T08:44:33.849Z,29.06
2018-08-04T08:49:37.433Z,29.08
2018-08-04T08:54:40.903Z,29.15
2018-08-04T08:59:44.421Z,29.15
2018-08-04T09:04:51.563Z,29.14
2018-08-04T09:09:55.372Z,29.17
2018-08-04T09:14:59.156Z,29.17
2018-08-04T09:20:02.778Z,29.17
2018-08-04T09:25:07.428Z,29.18
2018-08-04T09:30:13.026Z,29.20
2018-08-04T09:35:16.953Z,29.20
2018-08-04T09:40:20.482Z,29.23
2018-08-04T09:45:23.997Z,29.21
2018-08-04T09:50:27.670Z,29.26
2018-08-04T09:55:31.301Z,29.25
2018-08-04T10:00:40.239Z,29.27
2018-08-04T10:05:43.997Z,29.30
2018-08-04T10:10:47.904Z,29.25
2018-08-04T10:15:51.557Z,29.28
2018-08-04T10:20:55.302Z,29.29
2018-08-04T10:25:58.951Z,29.27
2018-08-04T10:31:02.856Z,29.28
2018-08-04T10:36:06.644Z,29.40
2018-08-04T10:41:10.219Z,29.41
2018-08-04T10:46:14.332Z,29.35
2018-08-04T10:51:17.830Z,29.31
2018-08-04T10:56:21.461Z,29.43
2018-08-04T11:07:02.618Z,29.53
2018-08-04T11:12:06.210Z,29.40
2018-08-04T11:17:09.857Z,29.37
2018-08-04T11:22:13.409Z,29.36
2018-08-04T11:27:17.150Z,29.38
2018-08-04T11:32:20.688Z,29.38
2018-08-04T11:37:24.202Z,29.47
2018-08-04T11:42:27.616Z,29.43
2018-08-04T11:47:31.097Z,29.40
2018-08-04T11:52:34.709Z,29.46
2018-08-04T11:57:38.409Z,29.47
2018-08-04T12:02:41.885Z,29.47
2018-08-04T12:07:45.461Z,29.52
2018-08-04T12:12:49.226Z,29.61
2018-08-04T12:23:30.727Z,29.58
2018-08-04T12:28:34.194Z,29.51
2018-08-04T12:33:37.678Z,29.49
2018-08-04T12:38:41.387Z,29.48
2018-08-04T12:43:44.911Z,29.48
2018-08-04T12:48:48.609Z,29.46
2018-08-04T12:53:52.534Z,29.49
2018-08-04T12:58:56.024Z,29.50
2018-08-04T13:03:59.711Z,29.54
2018-08-04T13:09:03.265Z,29.55
2018-08-04T13:14:07.337Z,29.55
2018-08-04T13:19:11.430Z,29.55
2018-08-04T13:24:15.426Z,29.55
2018-08-04T13:29:19.323Z,29.48
2018-08-04T13:34:23.081Z,29.50
2018-08-04T13:39:26.994Z,29.47
2018-08-04T13:44:30.464Z,29.51
2018-08-04T13:49:34.173Z,29.47
2018-08-04T13:54:38.165Z,29.46
2018-08-04T13:59:41.978Z,29.48
2018-08-04T14:04:45.429Z,29.55
2018-08-04T14:09:48.996Z,29.62
2018-08-04T14:14:52.509Z,29.63
2018-08-04T14:19:56.013Z,29.67
2018-08-04T14:24:59.777Z,29.56
2018-08-04T14:30:03.637Z,29.54
2018-08-04T14:35:08.081Z,29.49
2018-08-04T14:40:12.709Z,29.47
2018-08-04T14:45:16.356Z,29.44
2018-08-04T14:50:19.852Z,29.44
2018-08-04T14:55:23.330Z,29.40
2018-08-04T15:00:26.969Z,29.43
2018-08-04T15:05:30.749Z,29.42
2018-08-04T15:10:34.461Z,29.39
2018-08-04T15:15:40.214Z,29.47
2018-08-04T15:20:43.821Z,29.47
2018-08-04T15:25:47.445Z,29.47
2018-08-04T15:30:50.985Z,29.48
2018-08-04T15:35:54.546Z,29.47
2018-08-04T15:40:58.533Z,29.49
2018-08-04T15:46:02.274Z,29.50
2018-08-04T15:51:05.990Z,29.50
2018-08-04T15:56:09.618Z,29.49
2018-08-04T16:01:13.155Z,29.48
2018-08-04T16:06:16.745Z,29.49
2018-08-04T16:11:20.290Z,29.50
2018-08-04T16:16:24.511Z,29.49
2018-08-04T16:21:28.380Z,29.50
2018-08-04T16:26:31.902Z,29.50
2018-08-04T16:31:35.634Z,29.52
2018-08-04T16:36:39.242Z,29.57
2018-08-04T16:41:43.117Z,29.58
2018-08-04T16:46:46.661Z,29.55
2018-08-04T16:51:50.100Z,29.57
2018-08-04T16:56:53.721Z,29.56
2018-08-04T17:01:57.676Z,29.55
2018-08-04T17:07:01.122Z,29.54
2018-08-04T17:12:04.649Z,29.56
2018-08-04T17:17:08.473Z,29.57
2018-08-04T17:22:12.001Z,29.57
2018-08-04T17:27:15.478Z,29.56
2018-08-04T17:32:19.069Z,29.56
2018-08-04T17:37:22.658Z,29.53
2018-08-04T17:42:26.134Z,29.57
2018-08-04T17:47:29.605Z,29.55
2018-08-04T17:52:33.090Z,29.57
2018-08-04T17:57:36.695Z,29.59
2018-08-04T18:02:40.744Z,29.57
2018-08-04T18:07:44.366Z,29.57
2018-08-04T18:12:47.826Z,29.57
2018-08-04T18:17:51.425Z,29.56
2018-08-04T18:22:54.861Z,29.56
2018-08-04T18:27:58.299Z,29.55
2018-08-04T18:33:01.852Z,29.54
2018-08-04T18:38:05.362Z,29.59
2018-08-04T18:43:08.915Z,29.54
2018-08-04T18:48:12.476Z,29.55
2018-08-04T18:53:16.045Z,29.56
2018-08-04T18:58:19.525Z,29.56
2018-08-04T19:03:23.130Z,29.58
2018-08-04T19:08:26.634Z,29.55
2018-08-04T19:13:30.078Z,29.53
2018-08-04T19:18:33.560Z,29.53
2018-08-04T19:23:37.165Z,29.51
2018-08-04T19:28:40.732Z,29.49
2018-08-04T19:33:44.205Z,29.49
2018-08-04T19:38:47.665Z,29.47
2018-08-04T19:43:51.243Z,29.40
2018-08-04T19:48:54.885Z,29.43
2018-08-04T19:53:58.466Z,29.43
2018-08-04T19:59:02.053Z,29.40
2018-08-04T20:04:05.631Z,29.44
2018-08-04T20:09:10.652Z,29.41
2018-08-04T20:14:14.137Z,29.38
2018-08-04T20:19:17.629Z,29.37
2018-08-04T20:24:21.135Z,29.33
2018-08-04T20:29:24.619Z,29.34
2018-08-04T20:34:28.183Z,29.30
2018-08-04T20:39:31.738Z,29.28
2018-08-04T20:44:35.339Z,29.28
2018-08-04T20:49:38.812Z,29.29
2018-08-04T20:54:42.330Z,29.29
2018-08-04T20:59:45.868Z,29.24
2018-08-04T21:04:49.401Z,29.27
2018-08-04T21:09:52.934Z,29.24
2018-08-04T21:14:56.430Z,29.25
2018-08-04T21:19:59.921Z,29.22
2018-08-04T21:25:03.557Z,29.22
2018-08-04T21:30:07.802Z,29.23
2018-08-04T21:35:11.266Z,29.23
2018-08-04T21:40:14.777Z,29.24
2018-08-04T21:45:18.432Z,29.22
2018-08-04T21:50:21.950Z,29.24
2018-08-04T21:55:25.598Z,29.20
2018-08-04T22:00:29.210Z,29.21
2018-08-04T22:05:32.991Z,29.22
2018-08-04T22:10:36.539Z,29.22
2018-08-04T22:15:40.038Z,29.15
2018-08-04T22:20:43.479Z,29.18
2018-08-04T22:25:46.905Z,29.12
2018-08-04T22:30:50.442Z,29.16
2018-08-04T22:35:53.949Z,29.15
2018-08-04T22:40:57.529Z,29.15
2018-08-04T22:46:03.957Z,29.15
2018-08-04T22:51:07.526Z,29.11
2018-08-04T22:56:11.009Z,29.08
2018-08-04T23:01:14.530Z,29.09
2018-08-04T23:06:18.066Z,29.09
2018-08-04T23:11:21.549Z,29.08
2018-08-04T23:16:25.153Z,29.08
2018-08-04T23:21:28.637Z,29.04
2018-08-04T23:26:32.141Z,29.06
2018-08-04T23:31:35.704Z,29.03
2018-08-04T23:36:39.241Z,28.93
2018-08-04T23:41:42.817Z,28.89
2018-08-04T23:46:46.341Z,28.93
2018-08-04T23:51:49.968Z,28.98
2018-08-04T23:56:53.501Z,28.93
